Mansfield Hollow, Connecticut
Current Conditions -  °F | °C
As of 5:10 AM on Tuesday 21 Oct 2014 (Local Time) from KIJD Reporting Station
Few Clouds Few Clouds  
Wind Chill: 40°   Ceiling: Unl
Heat Index: 40°   Visibility: 10mi
Dew Point: 38°   Wind: 0mph
Humidity: 93%   Direction: NA
Pressure: 29.95"   Gusts: NA
Location:  41.7742°N, 72.196°W
Report Text: KIJD 210910Z AUTO 00000KT 10SM FEW003 04/03 A2995 RMK AO2 T00440033
Loading
Personal Weather Stations






























Interactive Weather Map
Tropical Storm Tracking
New forecast layout! Learn more

10-Day Weather Forecast

Advertisements
Track Severe Weather on mobile